This is the latest recevied weather packets stored in our database for station/object YN7ZGH-13. If no packets are shown the sender has not sent any weather packets the latest 10 day(s).
| Time | Temp. | Humidity | Pressure | Rain* | Wind** | Luminosity | Snow |
|---|---|---|---|---|---|---|---|
| 1778425198 | 28.89° C | 63% | 1012 hPa | 0 mm | - | - | - |
| 1778424597 | 28.89° C | 64% | 1012 hPa | 0 mm | - | - | - |
| 1778423997 | 28.33° C | 65% | 1012 hPa | 0 mm | - | - | - |
| 1778423396 | 27.78° C | 65% | 1012 hPa | 0 mm | - | - | - |
| 1778422796 | 27.78° C | 65% | 1012 hPa | 0 mm | - | - | - |
| 1778422195 | 27.78° C | 67% | 1012 hPa | 0 mm | - | - | - |
| 1778421595 | 27.22° C | 70% | 1012 hPa | 0 mm | - | - | - |
| 1778420994 | 27.22° C | 70% | 1012 hPa | 0 mm | - | - | - |
| 1778420394 | 26.67° C | 71% | 1012 hPa | 0 mm | - | - | - |
| 1778419793 | 26.11° C | 72% | 1012 hPa | 0 mm | - | - | - |
| 1778419193 | 25.56° C | 74% | 1012 hPa | 0 mm | - | - | - |
| 1778418592 | 25° C | 74% | 1012 hPa | 0 mm | - | - | - |
| 1778417992 | 25° C | 74% | 1012 hPa | 0 mm | - | - | - |
| 1778417391 | 25° C | 74% | 1012 hPa | 0 mm | - | - | - |
| 1778416791 | 24.44° C | 75% | 1012 hPa | 0 mm | - | - | - |
| 1778416190 | 23.89° C | 75% | 1011 hPa | 0 mm | - | - | - |
| 1778415590 | 23.89° C | 75% | 1011 hPa | 0 mm | - | - | - |
| 1778414953 | 23.89° C | 75% | 1011 hPa | 0 mm | - | - | - |
| 1778414353 | 23.89° C | 75% | 1011 hPa | 0 mm | - | - | - |
| 1778412027 | 23.89° C | 74% | 1011 hPa | 0 mm | - | - | - |
| 1778411427 | 25.56° C | 70% | 1011 hPa | 0 mm | - | - | - |
| 1778410827 | 25.56° C | 70% | 1011 hPa | 0 mm | - | - | - |
| 1778410226 | 25.56° C | 69% | 1011 hPa | 0 mm | - | - | - |
| 1778409626 | 25.56° C | 68% | 1011 hPa | 0 mm | - | - | - |
| 1778409025 | 25.56° C | 66% | 1011 hPa | 0 mm | - | - | - |
* Rain latest hour (hover to see other rain measurements)
** Current wind speed in m/s (hover to see current wind gust speed)